Time;durP1;ratioP1;P1;durP2;ratioP2;P2;SDS_P1;SDS_P2;PMS_P1;PMS_P2;Temp;Humidity;BMP_temperature;BMP_pressure;BME280_temperature;BME280_humidity;BME280_pressure;Samples;Min_cycle;Max_cycle;Signal;HPM_P1;HPM_P2
2023/04/25 00:00:12;;;;;;;4.37;0.95;;;;;;;14.69;58.88;98523.53;4492476;31;32930;-62
2023/04/25 00:02:41;;;;;;;0.57;0.57;;;;;;;14.32;60.41;98522.19;4494476;31;33795;-62
2023/04/25 00:05:09;;;;;;;0.50;0.50;;;;;;;14.82;59.28;98521.16;4495195;31;33917;-62
2023/04/25 00:07:37;;;;;;;3.30;1.17;;;;;;;15.22;57.86;98513.13;4490551;31;33947;-62
2023/04/25 00:10:05;;;;;;;0.62;0.57;;;;;;;15.04;58.00;98507.97;4490537;31;34063;-63
2023/04/25 00:12:33;;;;;;;0.65;0.60;;;;;;;15.21;57.32;98501.50;4494890;31;33700;-63
2023/04/25 00:15:00;;;;;;;0.85;0.62;;;;;;;15.19;58.06;98506.22;4486486;31;33572;-63
2023/04/25 00:17:28;;;;;;;0.60;0.50;;;;;;;15.30;57.49;98499.63;4490846;31;33935;-62
2023/04/25 00:19:57;;;;;;;0.70;0.57;;;;;;;15.54;56.72;98496.81;4490379;31;33203;-62
2023/04/25 00:22:25;;;;;;;1.08;0.65;;;;;;;15.43;56.93;98493.66;4484598;31;32980;-62
2023/04/25 00:24:53;;;;;;;1.35;0.77;;;;;;;15.02;58.40;98501.91;4484294;31;33888;-62
2023/04/25 00:27:20;;;;;;;0.62;0.50;;;;;;;15.19;57.29;98494.63;4489085;31;34037;-63
2023/04/25 00:29:48;;;;;;;0.65;0.65;;;;;;;14.78;58.75;98495.56;4489411;31;34054;-62
2023/04/25 00:32:15;;;;;;;0.68;0.68;;;;;;;14.83;58.27;98486.97;4484655;31;32463;-62
2023/04/25 00:34:43;;;;;;;1.95;0.85;;;;;;;14.96;58.07;98486.41;4487914;31;35081;-62
2023/04/25 00:37:11;;;;;;;1.33;1.02;;;;;;;14.48;59.48;98478.28;4482583;32;34766;-62
2023/04/25 00:39:39;;;;;;;1.48;0.77;;;;;;;14.30;60.18;98480.31;4482503;31;33279;-63
2023/04/25 00:42:07;;;;;;;1.48;0.85;;;;;;;13.80;62.64;98487.50;4488037;31;32562;-62
2023/04/25 00:44:35;;;;;;;2.80;1.35;;;;;;;13.84;62.42;98480.78;4497770;31;35228;-63
2023/04/25 00:47:03;;;;;;;1.23;0.77;;;;;;;13.85;62.62;98484.31;4493400;31;33696;-63
2023/04/25 00:49:31;;;;;;;2.08;1.17;;;;;;;13.97;62.81;98477.63;4487013;31;34950;-63
2023/04/25 00:51:59;;;;;;;1.25;0.75;;;;;;;13.73;63.25;98476.56;4492400;31;33248;-62
2023/04/25 00:54:26;;;;;;;1.35;1.05;;;;;;;13.70;63.20;98479.56;4498410;31;34041;-62
2023/04/25 00:56:54;;;;;;;4.97;1.12;;;;;;;13.97;62.62;98475.75;4498117;31;33815;-63
2023/04/25 00:59:22;;;;;;;1.87;1.08;;;;;;;14.25;61.78;98469.19;4498042;31;34229;-62
2023/04/25 01:01:50;;;;;;;0.40;0.40;;;;;;;14.40;61.17;98462.94;4494582;31;34976;-62
2023/04/25 01:04:17;;;;;;;0.40;0.40;;;;;;;14.56;60.54;98456.72;4482722;31;34099;-61
2023/04/25 01:06:45;;;;;;;0.65;0.65;;;;;;;14.05;62.07;98469.53;4486031;31;33359;-63
2023/04/25 01:09:13;;;;;;;1.02;0.90;;;;;;;13.61;63.11;98461.78;4494550;31;33265;-63
2023/04/25 01:11:40;;;;;;;1.20;1.10;;;;;;;13.82;62.07;98463.13;4494044;31;32610;-61
2023/04/25 01:14:08;;;;;;;1.45;1.10;;;;;;;13.81;61.94;98462.31;4492850;31;32933;-61
2023/04/25 01:16:36;;;;;;;2.25;1.70;;;;;;;14.20;60.46;98456.25;4489456;31;33933;-61
2023/04/25 01:19:16;;;;;;;1.52;1.00;;;;;;;13.80;61.77;98467.84;4494728;31;33181;-61
2023/04/25 01:21:45;;;;;;;1.87;1.20;;;;;;;13.99;60.34;98465.66;4493113;31;33789;-61
2023/04/25 01:24:13;;;;;;;1.27;0.82;;;;;;;13.87;60.65;98464.31;4479476;31;32341;-62
2023/04/25 01:26:48;;;;;;;1.27;1.15;;;;;;;14.48;59.14;98461.25;4482667;31;34202;-61
2023/04/25 01:29:21;;;;;;;1.42;0.98;;;;;;;13.60;60.73;98467.31;4490187;31;33165;-60
2023/04/25 01:31:48;;;;;;;1.35;0.68;;;;;;;14.06;59.41;98462.28;4492572;31;33849;-60
2023/04/25 01:34:16;;;;;;;2.60;1.08;;;;;;;13.38;60.79;98464.22;4493737;31;35209;-60
2023/04/25 01:36:44;;;;;;;0.93;0.82;;;;;;;14.08;58.71;98461.13;4496575;31;33701;-60
2023/04/25 01:39:11;;;;;;;1.25;0.85;;;;;;;13.95;59.20;98461.63;4493096;31;34847;-60
2023/04/25 01:41:39;;;;;;;4.05;1.67;;;;;;;13.56;59.88;98464.09;4493695;31;34083;-60
2023/04/25 01:44:07;;;;;;;1.75;1.52;;;;;;;13.41;60.14;98460.38;4488064;31;34028;-63
2023/04/25 01:46:35;;;;;;;1.62;0.98;;;;;;;13.64;59.02;98457.88;4483369;31;33790;-60
2023/04/25 01:49:04;;;;;;;1.55;0.95;;;;;;;13.27;59.61;98464.53;4493760;31;34271;-62
2023/04/25 01:51:32;;;;;;;1.17;1.05;;;;;;;13.15;59.96;98452.38;4495244;31;34695;-61
2023/04/25 01:54:00;;;;;;;1.23;0.85;;;;;;;13.00;60.51;98462.88;4493714;31;35029;-62
2023/04/25 01:56:32;;;;;;;1.02;0.88;;;;;;;12.95;60.33;98455.31;4492799;31;34662;-61
2023/04/25 01:59:00;;;;;;;1.48;0.98;;;;;;;13.21;59.22;98455.22;4491854;31;34018;-61
2023/04/25 02:01:29;;;;;;;4.75;1.75;;;;;;;13.37;59.06;98472.44;4488596;31;33912;-62
2023/04/25 02:03:58;;;;;;;2.28;1.20;;;;;;;13.28;59.38;98467.03;4492983;31;33851;-61
2023/04/25 02:06:26;;;;;;;2.15;1.33;;;;;;;13.09;59.68;98469.97;4490110;31;33938;-63
2023/04/25 02:08:54;;;;;;;1.27;1.05;;;;;;;13.55;58.61;98481.25;4482044;31;33337;-63
2023/04/25 02:11:21;;;;;;;0.98;0.80;;;;;;;12.91;59.77;98471.91;4485112;31;33758;-61
2023/04/25 02:13:50;;;;;;;1.45;1.15;;;;;;;13.19;59.29;98475.19;4496746;31;35181;-62
2023/04/25 02:16:18;;;;;;;3.30;2.25;;;;;;;13.17;59.26;98471.84;4497029;31;32884;-61
2023/04/25 02:18:46;;;;;;;1.55;0.90;;;;;;;13.43;58.43;98475.31;4487184;31;33715;-61
2023/04/25 02:21:14;;;;;;;1.42;1.15;;;;;;;13.73;57.53;98473.03;4495533;31;33762;-61
2023/04/25 02:23:45;;;;;;;2.08;1.48;;;;;;;13.11;59.29;98467.97;4491288;31;37650;-61
2023/04/25 02:26:13;;;;;;;1.00;0.80;;;;;;;12.94;59.62;98469.75;4492440;31;33886;-61
2023/04/25 02:28:41;;;;;;;2.25;1.58;;;;;;;12.90;59.66;98470.22;4487732;31;34529;-62
2023/04/25 02:31:08;;;;;;;2.08;1.35;;;;;;;13.02;58.69;98461.72;4493322;31;34950;-61
2023/04/25 02:33:36;;;;;;;1.40;1.17;;;;;;;13.33;58.42;98468.41;4487503;31;34102;-60
2023/04/25 02:36:06;;;;;;;2.55;1.42;;;;;;;13.19;58.53;98459.94;4496200;31;35181;-60
2023/04/25 02:38:34;;;;;;;1.00;0.90;;;;;;;13.36;57.90;98466.25;4487334;31;33633;-60
2023/04/25 02:41:03;;;;;;;1.98;1.10;;;;;;;12.60;60.35;98453.63;4496396;31;32692;-60
2023/04/25 02:43:30;;;;;;;1.05;0.88;;;;;;;13.00;59.05;98465.56;4492303;31;35390;-61
2023/04/25 02:45:58;;;;;;;1.90;1.25;;;;;;;13.11;58.79;98456.38;4494845;31;34014;-60
2023/04/25 02:48:25;;;;;;;9.55;2.28;;;;;;;13.18;58.10;98462.78;4484789;31;33429;-59
2023/04/25 02:50:53;;;;;;;1.55;1.05;;;;;;;13.00;58.33;98463.72;4497872;31;33703;-60
2023/04/25 02:53:20;;;;;;;0.90;0.90;;;;;;;12.64;59.41;98460.34;4493069;31;33965;-60
2023/04/25 02:55:49;;;;;;;1.25;0.95;;;;;;;12.58;59.77;98459.16;4481860;31;34046;-59
2023/04/25 02:58:16;;;;;;;1.70;0.93;;;;;;;12.80;58.87;98456.91;4491876;31;33455;-60
2023/04/25 03:00:44;;;;;;;1.42;1.15;;;;;;;12.69;58.56;98459.88;4494499;31;34842;-61
2023/04/25 03:03:12;;;;;;;1.70;1.25;;;;;;;13.07;58.06;98461.25;4489220;31;32765;-60
2023/04/25 03:05:39;;;;;;;1.75;1.10;;;;;;;12.57;59.05;98461.97;4489296;31;33804;-60
2023/04/25 03:08:07;;;;;;;1.00;0.93;;;;;;;12.64;59.25;98462.19;4488439;31;34933;-60
2023/04/25 03:10:36;;;;;;;1.98;1.58;;;;;;;12.52;59.04;98464.28;4489916;31;32969;-61
2023/04/25 03:13:05;;;;;;;1.27;1.17;;;;;;;12.46;59.19;98459.59;4492456;31;33854;-60
2023/04/25 03:15:33;;;;;;;1.42;0.90;;;;;;;12.17;60.37;98463.41;4490295;31;33872;-60
2023/04/25 03:18:01;;;;;;;0.90;0.88;;;;;;;12.56;59.51;98454.94;4493144;31;33523;-60
2023/04/25 03:20:29;;;;;;;1.65;1.17;;;;;;;12.52;59.34;98450.88;4492774;31;32575;-60
2023/04/25 03:22:57;;;;;;;1.45;1.17;;;;;;;12.41;59.96;98460.03;4497959;31;34002;-60
2023/04/25 03:25:25;;;;;;;1.30;0.85;;;;;;;12.71;59.11;98460.53;4489270;31;32962;-61
2023/04/25 03:27:53;;;;;;;1.15;1.05;;;;;;;12.38;60.15;98454.97;4497851;31;33200;-62
2023/04/25 03:30:20;;;;;;;2.12;1.05;;;;;;;12.90;58.63;98465.69;4486890;31;34810;-62
2023/04/25 03:32:48;;;;;;;1.10;0.65;;;;;;;13.10;58.22;98457.38;4487485;31;33737;-62
2023/04/25 03:35:16;;;;;;;6.22;1.37;;;;;;;12.53;60.32;98463.31;4493147;31;33870;-61
2023/04/25 03:37:45;;;;;;;0.68;0.68;;;;;;;12.58;59.95;98463.66;4490210;31;34374;-62
2023/04/25 03:40:14;;;;;;;3.25;1.48;;;;;;;12.35;60.28;98458.81;4491295;31;33874;-62
2023/04/25 03:42:45;;;;;;;0.93;0.88;;;;;;;12.48;60.16;98466.44;4489292;31;33820;-62
2023/04/25 03:45:13;;;;;;;1.45;1.20;;;;;;;12.48;60.08;98465.62;4497285;31;34915;-62
2023/04/25 03:47:40;;;;;;;1.55;1.35;;;;;;;11.87;62.41;98456.59;4492216;31;34906;-62
2023/04/25 03:50:09;;;;;;;1.65;0.50;;;;;;;12.05;62.10;98472.69;4497137;31;33216;-61
2023/04/25 03:52:36;;;;;;;0.80;0.77;;;;;;;12.25;61.20;98468.81;4497413;31;34023;-62
2023/04/25 03:55:04;;;;;;;0.90;0.85;;;;;;;12.32;61.04;98467.19;4489746;31;33883;-62
2023/04/25 03:57:32;;;;;;;2.20;1.50;;;;;;;12.29;60.89;98456.75;4484538;31;33612;-62
2023/04/25 04:00:00;;;;;;;1.55;1.23;;;;;;;12.27;61.39;98479.41;4486501;31;33739;-63
2023/04/25 04:02:28;;;;;;;0.93;0.85;;;;;;;12.00;62.00;98472.28;4486415;31;33882;-62
2023/04/25 04:04:57;;;;;;;2.12;1.27;;;;;;;12.37;61.29;98468.56;4491468;31;34027;-62
2023/04/25 04:07:26;;;;;;;1.37;0.90;;;;;;;12.55;60.68;98467.53;4484623;31;33602;-62
2023/04/25 04:09:55;;;;;;;1.17;0.95;;;;;;;11.98;62.29;98469.78;4483148;31;34685;-62
2023/04/25 04:12:23;;;;;;;2.10;1.50;;;;;;;11.78;63.78;98469.09;4489249;31;35264;-62
2023/04/25 04:14:50;;;;;;;1.45;1.20;;;;;;;12.25;61.95;98476.87;4496771;31;33199;-61
2023/04/25 04:17:18;;;;;;;1.55;1.23;;;;;;;11.83;63.37;98482.00;4488165;31;32337;-61
2023/04/25 04:19:46;;;;;;;2.45;1.60;;;;;;;11.97;63.67;98478.81;4486859;31;34925;-61
2023/04/25 04:22:14;;;;;;;2.10;1.58;;;;;;;11.97;63.91;98483.34;4490704;31;33894;-61
2023/04/25 04:24:43;;;;;;;2.08;1.83;;;;;;;11.64;65.21;98489.19;4482237;31;33964;-61
2023/04/25 04:27:12;;;;;;;1.37;0.73;;;;;;;11.75;64.91;98485.47;4486335;31;32836;-61
2023/04/25 04:29:40;;;;;;;1.65;1.10;;;;;;;12.35;63.17;98488.34;4484876;31;33534;-61
2023/04/25 04:32:08;;;;;;;1.35;0.98;;;;;;;12.11;64.52;98483.63;4495323;31;33313;-61
2023/04/25 04:34:37;;;;;;;2.05;1.45;;;;;;;11.71;66.31;98484.06;4495231;31;34124;-61
2023/04/25 04:37:06;;;;;;;2.33;1.25;;;;;;;11.79;66.73;98486.00;4492557;31;33503;-61
2023/04/25 04:39:34;;;;;;;1.75;1.65;;;;;;;11.68;67.21;98489.72;4493691;31;33541;-61
2023/04/25 04:42:03;;;;;;;1.05;0.82;;;;;;;11.81;66.73;98489.34;4486061;31;33908;-61
2023/04/25 04:44:34;;;;;;;1.58;1.48;;;;;;;11.52;68.24;98490.41;4494745;31;34054;-61
2023/04/25 04:47:06;;;;;;;1.85;1.37;;;;;;;11.56;68.27;98497.16;4493052;31;31727;-61
2023/04/25 04:49:33;;;;;;;1.45;1.15;;;;;;;11.67;68.19;98504.12;4480773;31;36145;-61
2023/04/25 04:52:01;;;;;;;2.35;1.37;;;;;;;11.60;68.94;98497.69;4489415;31;34060;-61
2023/04/25 04:54:29;;;;;;;2.47;2.28;;;;;;;11.85;68.69;98493.47;4493506;31;34180;-62
2023/04/25 04:56:56;;;;;;;1.70;1.33;;;;;;;11.69;68.39;98493.28;4496222;31;32645;-62
2023/04/25 04:59:24;;;;;;;1.75;1.23;;;;;;;12.12;67.31;98495.19;4496032;31;33885;-61
2023/04/25 05:01:52;;;;;;;1.55;1.20;;;;;;;11.80;68.63;98499.25;4489701;31;35291;-64
2023/04/25 05:04:20;;;;;;;2.25;1.37;;;;;;;11.65;69.81;98503.44;4496286;31;34705;-62
2023/04/25 05:06:48;;;;;;;2.05;1.75;;;;;;;11.69;69.70;98495.97;4489308;31;33547;-61
2023/04/25 05:09:16;;;;;;;2.92;1.95;;;;;;;11.65;70.04;98508.78;4488473;31;33746;-60
2023/04/25 05:11:44;;;;;;;1.65;1.20;;;;;;;11.77;69.48;98496.88;4490493;31;34129;-61
2023/04/25 05:14:11;;;;;;;2.60;1.52;;;;;;;11.87;69.42;98505.69;4484724;31;34254;-61
2023/04/25 05:16:39;;;;;;;2.12;1.27;;;;;;;10.86;73.21;98494.16;4493418;31;34638;-61
2023/04/25 05:19:09;;;;;;;2.00;1.40;;;;;;;11.34;71.13;98498.44;4499674;31;33796;-60
2023/04/25 05:21:37;;;;;;;2.87;1.62;;;;;;;11.69;70.83;98502.16;4492541;31;34373;-62
2023/04/25 05:24:05;;;;;;;2.67;1.85;;;;;;;11.95;70.12;98501.44;4496301;31;32734;-62
2023/04/25 05:26:33;;;;;;;3.92;2.60;;;;;;;11.48;72.07;98506.94;4494695;31;34578;-62
2023/04/25 05:29:01;;;;;;;4.32;2.22;;;;;;;11.97;70.18;98499.41;4496479;31;33688;-62
2023/04/25 05:31:29;;;;;;;3.03;1.40;;;;;;;12.23;68.99;98508.38;4493926;31;33689;-62
2023/04/25 05:33:57;;;;;;;1.90;1.48;;;;;;;12.18;68.88;98502.62;4492389;31;34683;-62
2023/04/25 05:36:26;;;;;;;0.98;0.93;;;;;;;11.99;69.78;98513.53;4496504;31;34666;-61
2023/04/25 05:38:53;;;;;;;2.30;1.50;;;;;;;11.00;73.26;98511.56;4493406;31;33790;-62
2023/04/25 05:41:22;;;;;;;1.77;1.55;;;;;;;11.52;72.33;98511.00;4495923;31;33824;-62
2023/04/25 05:43:50;;;;;;;2.62;1.65;;;;;;;11.33;73.17;98499.44;4499124;31;34152;-62
2023/04/25 05:46:20;;;;;;;3.65;2.62;;;;;;;11.99;71.43;98494.75;4491610;31;34478;-62
2023/04/25 05:48:48;;;;;;;1.27;1.17;;;;;;;12.05;70.99;98505.72;4486648;31;33621;-62
2023/04/25 05:51:18;;;;;;;4.65;2.33;;;;;;;11.89;70.81;98495.69;4488072;31;35465;-62
2023/04/25 05:53:46;;;;;;;0.65;0.60;;;;;;;11.52;73.01;98519.88;4493696;31;35127;-62
2023/04/25 05:56:14;;;;;;;2.90;2.05;;;;;;;12.18;70.07;98501.78;4488425;31;34797;-62
2023/04/25 05:58:42;;;;;;;4.95;1.17;;;;;;;11.93;71.97;98508.78;4495844;31;32506;-62
2023/04/25 06:01:11;;;;;;;2.15;1.52;;;;;;;12.28;70.66;98508.75;4490425;31;34074;-62
2023/04/25 06:03:42;;;;;;;4.20;2.35;;;;;;;12.12;71.06;98504.09;4492154;31;34942;-63
2023/04/25 06:06:11;;;;;;;2.72;2.00;;;;;;;12.33;70.78;98510.97;4494284;31;34752;-62
2023/04/25 06:08:40;;;;;;;5.68;2.05;;;;;;;11.84;71.74;98500.63;4488762;31;33744;-62
2023/04/25 06:11:07;;;;;;;2.55;1.60;;;;;;;12.47;70.81;98505.03;4495403;31;34226;-61
2023/04/25 06:13:34;;;;;;;3.33;2.05;;;;;;;12.59;70.70;98509.16;4497717;31;34754;-62
2023/04/25 06:16:02;;;;;;;2.37;1.92;;;;;;;12.64;69.72;98508.66;4498781;31;34564;-62
2023/04/25 06:18:30;;;;;;;2.72;1.70;;;;;;;12.78;68.91;98510.78;4485352;31;34942;-62
2023/04/25 06:20:58;;;;;;;2.70;1.58;;;;;;;12.52;69.65;98505.41;4497913;31;35003;-62
2023/04/25 06:23:26;;;;;;;2.50;1.33;;;;;;;12.42;69.24;98504.66;4492414;31;35204;-62
2023/04/25 06:25:54;;;;;;;3.55;1.85;;;;;;;12.01;70.13;98511.53;4496705;31;33504;-61
2023/04/25 06:28:23;;;;;;;1.65;1.23;;;;;;;12.21;70.17;98502.31;4487894;31;34893;-62
2023/04/25 06:30:51;;;;;;;3.25;2.12;;;;;;;11.94;71.07;98507.78;4493786;31;33735;-62
2023/04/25 06:33:20;;;;;;;2.10;1.48;;;;;;;11.96;70.66;98500.44;4492933;31;33917;-62
2023/04/25 06:35:47;;;;;;;2.15;1.80;;;;;;;12.52;69.05;98500.03;4486748;31;33621;-62
2023/04/25 06:38:15;;;;;;;1.62;1.33;;;;;;;12.56;67.96;98501.41;4494386;31;33665;-61
2023/04/25 06:40:43;;;;;;;2.67;1.50;;;;;;;12.19;69.77;98500.78;4496568;31;33323;-62
2023/04/25 06:43:10;;;;;;;2.58;1.58;;;;;;;12.66;68.03;98504.00;4488944;31;34003;-61
2023/04/25 06:45:40;;;;;;;2.67;1.80;;;;;;;12.50;68.18;98509.25;4490729;31;33256;-63
2023/04/25 06:48:08;;;;;;;2.60;1.58;;;;;;;12.06;69.01;98498.50;4497651;31;33732;-62
2023/04/25 06:50:36;;;;;;;3.15;1.50;;;;;;;11.93;69.29;98501.56;4487919;31;33978;-62
2023/04/25 06:53:03;;;;;;;2.50;1.98;;;;;;;12.35;68.09;98512.47;4493415;31;34999;-61
2023/04/25 06:55:31;;;;;;;1.52;1.30;;;;;;;12.44;67.86;98496.47;4489515;31;33571;-61
2023/04/25 06:57:59;;;;;;;1.60;0.93;;;;;;;12.51;67.54;98500.19;4496391;31;33957;-62
2023/04/25 07:00:30;;;;;;;1.35;0.93;;;;;;;12.73;67.40;98506.87;4493065;31;33942;-62
2023/04/25 07:02:57;;;;;;;3.40;2.22;;;;;;;12.67;67.55;98504.81;4482803;31;33965;-63
2023/04/25 07:05:26;;;;;;;2.62;1.67;;;;;;;12.64;67.87;98505.97;4487630;31;34204;-62
2023/04/25 07:07:54;;;;;;;1.80;1.15;;;;;;;12.82;67.12;98511.31;4484595;31;34051;-62
2023/04/25 07:10:22;;;;;;;2.03;1.08;;;;;;;13.36;65.31;98516.47;4492247;31;33570;-62
2023/04/25 07:12:49;;;;;;;1.48;1.30;;;;;;;12.67;67.18;98508.34;4492694;31;34193;-62
2023/04/25 07:15:17;;;;;;;7.12;2.03;;;;;;;12.64;68.05;98511.34;4483530;31;34572;-62
2023/04/25 07:17:45;;;;;;;4.10;2.05;;;;;;;12.96;67.02;98513.38;4490832;31;33945;-63
2023/04/25 07:20:13;;;;;;;3.20;2.25;;;;;;;13.22;65.04;98523.25;4491806;31;33992;-61
2023/04/25 07:22:40;;;;;;;2.83;1.20;;;;;;;13.13;64.88;98524.19;4492394;31;33887;-62
2023/04/25 07:25:09;;;;;;;1.45;1.17;;;;;;;13.79;62.75;98523.47;4483863;31;33387;-62
2023/04/25 07:27:37;;;;;;;1.85;1.30;;;;;;;13.51;62.53;98521.06;4489282;31;33771;-62
2023/04/25 07:30:06;;;;;;;3.58;1.90;;;;;;;13.04;65.92;98523.34;4495443;31;34060;-62
2023/04/25 07:32:34;;;;;;;3.80;2.72;;;;;;;12.76;65.97;98511.94;4495438;31;33988;-62
2023/04/25 07:35:03;;;;;;;2.60;1.20;;;;;;;13.26;64.05;98519.28;4494755;31;34447;-63
2023/04/25 07:37:31;;;;;;;4.18;1.80;;;;;;;13.27;64.84;98520.97;4491568;31;33474;-62
2023/04/25 07:39:59;;;;;;;2.75;1.48;;;;;;;13.14;64.21;98531.28;4484792;31;35017;-63
2023/04/25 07:42:27;;;;;;;3.15;1.37;;;;;;;13.28;64.16;98517.25;4492955;31;33698;-62
2023/04/25 07:44:55;;;;;;;3.35;1.80;;;;;;;13.23;63.73;98525.78;4488726;31;33214;-62
2023/04/25 07:47:22;;;;;;;3.40;1.42;;;;;;;13.58;63.38;98517.69;4491824;31;33728;-63
2023/04/25 07:49:52;;;;;;;2.58;1.77;;;;;;;13.41;62.89;98524.88;4490573;31;35053;-62
2023/04/25 07:52:19;;;;;;;8.88;1.83;;;;;;;13.68;61.92;98529.16;4490210;31;34256;-61
2023/04/25 07:54:48;;;;;;;4.37;2.15;;;;;;;13.82;60.96;98527.69;4488494;31;33118;-63
2023/04/25 07:57:16;;;;;;;1.42;1.33;;;;;;;13.75;62.11;98533.72;4492929;31;34714;-61
2023/04/25 07:59:45;;;;;;;2.90;1.62;;;;;;;13.54;60.44;98525.25;4493758;31;34040;-63
2023/04/25 08:02:13;;;;;;;2.70;2.15;;;;;;;14.17;59.07;98523.88;4488632;31;33797;-62
2023/04/25 08:04:41;;;;;;;2.28;1.62;;;;;;;14.38;59.26;98518.84;4493252;31;33320;-62
2023/04/25 08:07:09;;;;;;;3.20;1.83;;;;;;;15.01;56.97;98522.63;4496840;31;33925;-63
2023/04/25 08:09:38;;;;;;;1.45;1.10;;;;;;;14.24;58.37;98534.78;4490748;31;33621;-62
2023/04/25 08:12:06;;;;;;;1.70;1.08;;;;;;;14.41;56.97;98529.25;4489200;31;34103;-62
2023/04/25 08:14:36;;;;;;;1.55;1.17;;;;;;;14.07;58.86;98528.56;4490757;31;33484;-63
2023/04/25 08:17:05;;;;;;;0.52;0.52;;;;;;;13.96;59.12;98533.28;4487061;31;34912;-61
2023/04/25 08:19:33;;;;;;;2.05;1.62;;;;;;;14.18;58.30;98526.38;4494940;31;33938;-62
2023/04/25 08:22:01;;;;;;;2.08;1.37;;;;;;;14.71;57.04;98534.16;4497600;31;33978;-63
2023/04/25 08:24:29;;;;;;;2.80;2.12;;;;;;;14.23;57.72;98536.66;4498974;31;33726;-63
2023/04/25 08:26:58;;;;;;;1.65;1.17;;;;;;;14.55;57.19;98537.69;4492787;31;33882;-61
2023/04/25 08:29:28;;;;;;;3.20;1.95;;;;;;;14.38;57.91;98539.50;4490234;31;34012;-63
2023/04/25 08:31:55;;;;;;;3.60;2.12;;;;;;;14.31;58.52;98535.81;4489105;31;34259;-61
2023/04/25 08:34:23;;;;;;;2.45;1.95;;;;;;;14.77;57.01;98537.00;4494406;31;33433;-61
2023/04/25 08:36:51;;;;;;;2.53;1.60;;;;;;;14.12;59.01;98539.66;4494959;31;33733;-63
2023/04/25 08:39:18;;;;;;;4.32;2.67;;;;;;;14.28;58.41;98550.44;4492724;31;35225;-62
2023/04/25 08:41:47;;;;;;;2.08;1.50;;;;;;;13.99;59.01;98545.53;4490496;31;33752;-63
2023/04/25 08:44:16;;;;;;;3.50;1.45;;;;;;;14.81;57.49;98550.97;4498005;31;33622;-62
2023/04/25 08:46:48;;;;;;;3.00;1.92;;;;;;;14.69;57.14;98547.78;4492273;31;33786;-63
2023/04/25 08:49:18;;;;;;;2.80;2.10;;;;;;;14.60;57.11;98548.78;4494381;31;33911;-62
2023/04/25 08:51:47;;;;;;;3.97;2.55;;;;;;;14.07;58.43;98563.53;4496997;31;34132;-63
2023/04/25 08:54:15;;;;;;;4.03;2.17;;;;;;;14.09;58.98;98562.38;4496129;31;33445;-62
2023/04/25 08:57:03;;;;;;;2.35;1.75;;;;;;;14.43;57.47;98558.69;4485092;31;32820;-62
2023/04/25 08:59:32;;;;;;;3.00;1.58;;;;;;;14.86;56.53;98568.31;4490153;31;33910;-61
2023/04/25 09:02:00;;;;;;;1.75;1.35;;;;;;;14.86;57.19;98567.44;4495796;31;34041;-62
2023/04/25 09:04:32;;;;;;;2.72;2.05;;;;;;;14.53;57.19;98575.53;4489357;31;34608;-62
2023/04/25 09:06:59;;;;;;;1.35;1.10;;;;;;;14.49;56.81;98568.78;4494469;31;33119;-61
2023/04/25 09:09:29;;;;;;;3.47;1.83;;;;;;;14.24;57.61;98573.31;4485238;31;34193;-62
2023/04/25 09:11:56;;;;;;;2.40;1.92;;;;;;;14.70;56.12;98578.22;4496508;31;33739;-63
2023/04/25 09:14:25;;;;;;;2.42;1.67;;;;;;;14.73;56.02;98572.50;4493925;31;32875;-62
2023/04/25 09:17:04;;;;;;;3.85;2.05;;;;;;;14.34;56.64;98557.00;4489511;31;35044;-62
2023/04/25 09:19:40;;;;;;;2.10;1.50;;;;;;;14.55;56.83;98576.22;4495812;31;34997;-62
2023/04/25 09:22:09;;;;;;;1.83;1.37;;;;;;;14.60;56.26;98562.25;4495257;31;34159;-62
2023/04/25 09:24:39;;;;;;;2.50;1.85;;;;;;;14.88;55.32;98557.34;4492092;31;33696;-62
2023/04/25 09:27:11;;;;;;;2.22;1.48;;;;;;;14.70;55.81;98562.06;4491249;31;33701;-62
2023/04/25 09:29:40;;;;;;;5.60;1.37;;;;;;;15.30;54.52;98554.34;4485465;31;34156;-63
2023/04/25 09:32:20;;;;;;;1.83;1.40;;;;;;;15.29;53.74;98552.69;4489237;31;34106;-62
2023/04/25 09:34:58;;;;;;;2.78;1.48;;;;;;;15.56;53.55;98555.94;4490876;31;33686;-61
2023/04/25 09:37:27;;;;;;;2.53;1.65;;;;;;;14.83;54.80;98557.00;4485539;31;34136;-62
2023/04/25 09:40:05;;;;;;;3.62;1.92;;;;;;;14.67;54.93;98553.34;4492666;31;32517;-61
2023/04/25 09:42:35;;;;;;;2.37;1.75;;;;;;;15.43;54.11;98543.03;4490950;31;33905;-65
2023/04/25 09:45:03;;;;;;;4.12;2.35;;;;;;;15.22;53.67;98545.47;4497434;31;33667;-65
2023/04/25 09:47:37;;;;;;;1.40;1.15;;;;;;;15.18;53.62;98555.75;4496062;31;33554;-63
2023/04/25 09:50:14;;;;;;;8.82;1.90;;;;;;;14.94;53.82;98547.75;4489141;31;33965;-63
2023/04/25 09:52:43;;;;;;;3.35;2.30;;;;;;;14.86;53.64;98545.87;4493877;31;32834;-63
2023/04/25 09:55:11;;;;;;;2.72;1.42;;;;;;;14.83;54.02;98551.63;4485796;31;33601;-63
2023/04/25 09:57:42;;;;;;;2.92;1.62;;;;;;;14.61;53.65;98559.41;4485777;31;33867;-64
2023/04/25 10:00:12;;;;;;;2.17;1.12;;;;;;;14.67;54.19;98558.72;4488020;31;34008;-64
2023/04/25 10:02:42;;;;;;;1.75;1.17;;;;;;;14.58;54.21;98554.34;4495458;31;34921;-64
2023/04/25 10:05:11;;;;;;;0.70;0.70;;;;;;;15.03;53.14;98560.19;4496749;31;33982;-63
2023/04/25 10:07:39;;;;;;;1.17;1.02;;;;;;;14.54;53.72;98569.16;4491720;31;34726;-65
2023/04/25 10:10:08;;;;;;;1.85;1.50;;;;;;;15.14;53.02;98549.88;4481919;31;33914;-64
2023/04/25 10:12:37;;;;;;;1.30;0.88;;;;;;;14.93;53.59;98560.37;4489587;31;34005;-64
2023/04/25 10:15:05;;;;;;;4.12;1.40;;;;;;;15.34;51.88;98555.72;4488162;31;33398;-63
2023/04/25 10:17:32;;;;;;;2.12;1.15;;;;;;;14.89;51.56;98562.56;4492353;31;34983;-64
2023/04/25 10:20:07;;;;;;;1.10;0.80;;;;;;;15.05;51.54;98553.59;4488732;31;32626;-64
2023/04/25 10:22:37;;;;;;;0.85;0.52;;;;;;;14.98;51.53;98560.69;4492787;31;32690;-64
2023/04/25 10:25:06;;;;;;;0.80;0.60;;;;;;;15.27;51.85;98552.00;4497478;31;32828;-64
2023/04/25 10:27:34;;;;;;;3.20;0.98;;;;;;;15.50;50.61;98559.34;4484619;31;34022;-63
2023/04/25 10:30:06;;;;;;;1.85;0.82;;;;;;;15.53;50.32;98557.12;4486668;31;33692;-63
2023/04/25 10:32:33;;;;;;;1.10;0.80;;;;;;;15.44;49.73;98560.03;4482805;31;34052;-63
2023/04/25 10:35:18;;;;;;;1.08;0.95;;;;;;;16.23;48.26;98553.56;4485854;31;33538;-63
2023/04/25 10:38:13;;;;;;;0.75;0.73;;;;;;;16.26;48.51;98555.06;4488012;31;35047;-63
2023/04/25 10:40:41;;;;;;;0.95;0.85;;;;;;;16.24;47.57;98555.25;4487900;31;34067;-63
2023/04/25 10:43:34;;;;;;;0.35;0.35;;;;;;;15.79;49.75;98550.63;4486003;31;34100;-63
2023/04/25 10:46:12;;;;;;;0.80;0.70;;;;;;;16.27;47.78;98549.47;4495061;31;33271;-63
2023/04/25 10:48:54;;;;;;;1.00;0.73;;;;;;;15.74;48.85;98558.44;4489579;31;34831;-63
2023/04/25 10:51:26;;;;;;;0.65;0.57;;;;;;;16.50;47.18;98549.50;4495445;31;35425;-63
2023/04/25 10:54:02;;;;;;;0.98;0.62;;;;;;;16.61;46.37;98555.47;4495549;31;34187;-63
2023/04/25 10:56:31;;;;;;;1.12;0.62;;;;;;;16.83;44.62;98556.50;4487211;31;32382;-63
2023/04/25 10:59:26;;;;;;;0.68;0.43;;;;;;;16.62;44.82;98559.84;4486836;31;34156;-63
2023/04/25 11:01:56;;;;;;;1.02;0.80;;;;;;;16.78;42.90;98567.84;4483152;31;34172;-63
2023/04/25 11:04:33;;;;;;;0.35;0.32;;;;;;;17.07;42.87;98558.94;4488857;31;34497;-63
2023/04/25 11:07:05;;;;;;;0.37;0.37;;;;;;;17.86;42.88;98550.25;4490735;31;34374;-63
2023/04/25 11:09:45;;;;;;;0.40;0.35;;;;;;;18.07;42.85;98563.81;4485669;31;35168;-63
2023/04/25 11:12:13;;;;;;;0.52;0.50;;;;;;;18.14;41.02;98561.19;4489023;31;33645;-62
2023/04/25 11:14:40;;;;;;;0.62;0.45;;;;;;;17.70;41.98;98562.09;4489462;31;33894;-62
2023/04/25 11:17:08;;;;;;;1.23;0.47;;;;;;;18.30;40.35;98566.34;4490705;31;35349;-63
2023/04/25 11:19:36;;;;;;;2.00;0.70;;;;;;;18.32;39.46;98564.28;4494420;31;34932;-64
2023/04/25 11:22:04;;;;;;;0.40;0.40;;;;;;;17.59;40.31;98566.13;4496008;31;32821;-64
2023/04/25 11:24:34;;;;;;;1.10;0.52;;;;;;;18.04;38.64;98571.47;4496738;31;35336;-64
2023/04/25 11:27:03;;;;;;;0.55;0.55;;;;;;;18.07;38.64;98565.66;4489674;31;33815;-64
2023/04/25 11:29:32;;;;;;;0.37;0.37;;;;;;;17.44;39.46;98571.53;4483615;31;34200;-64
2023/04/25 11:32:00;;;;;;;1.00;0.68;;;;;;;17.15;39.12;98575.06;4493220;31;35137;-64
2023/04/25 11:34:32;;;;;;;1.65;0.62;;;;;;;17.78;38.29;98580.09;4496079;31;34111;-64
2023/04/25 11:37:02;;;;;;;0.90;0.70;;;;;;;17.37;39.50;98586.84;4495721;31;34764;-64
2023/04/25 11:39:30;;;;;;;0.62;0.45;;;;;;;17.57;38.33;98599.81;4489162;31;33794;-62
2023/04/25 11:41:57;;;;;;;1.10;0.62;;;;;;;17.10;39.79;98596.41;4492626;31;35305;-64